Lengby, Minnesota
Current Conditions -  °F | °C
As of 9:55 AM on Saturday 25 Oct 2014 (Local Time) from KFSE Reporting Station
Clear Clear  
Wind Chill: 38°   Ceiling: Unl
Heat Index: 45°   Visibility: 10mi
Dew Point: 30°   Wind: 15mph
Humidity: 57%   Direction: 290°WNW
Pressure: 30.04"   Gusts: 23mph
Location:  47.52°N, 95.64°W
Report Text: KFSE 251455Z AUTO 29013G20KT 10SM CLR 07/M01 A3004 RMK AO2
Loading
Personal Weather Stations






























Interactive Weather Map
Tropical Storm Tracking
New forecast layout! Learn more

10-Day Weather Forecast

Advertisements
Track Severe Weather on mobile